This is the latest recevied weather packets stored in our database for station/object KQ4WWD. If no packets are shown the sender has not sent any weather packets the latest 1 day(s).
| Time | Temp. | Humidity | Pressure | Rain* | Wind** | Luminosity | Snow |
|---|---|---|---|---|---|---|---|
| 1778005821 | 30° C | 50% | 1015.3 hPa | 0 mm | 0.45 m/s, 127° | 774 W/m² | - |
| 1778005518 | 29.44° C | 47% | 1015.5 hPa | 0 mm | 0.45 m/s, 188° | 736 W/m² | - |
| 1778005215 | 30.56° C | 48% | 1015.4 hPa | 0 mm | 1.34 m/s, 103° | 812 W/m² | - |
| 1778004911 | 30.56° C | 47% | 1015.6 hPa | 0 mm | 1.34 m/s, 213° | 792 W/m² | - |
| 1778004608 | 30° C | 48% | 1015.5 hPa | 0 mm | 2.24 m/s, 283° | 779 W/m² | - |
| 1778004304 | 30.56° C | 48% | 1015.5 hPa | 0 mm | 1.34 m/s, 277° | 753 W/m² | - |
| 1778004001 | 30.56° C | 47% | 1015.6 hPa | 0 mm | 0.45 m/s, 242° | 818 W/m² | - |
| 1778003697 | 30° C | 50% | 1015.4 hPa | 0 mm | 0.89 m/s, 174° | 786 W/m² | - |
| 1778003394 | 30.56° C | 50% | 1015.8 hPa | 0 mm | 3.58 m/s, 154° | 792 W/m² | - |
| 1778003091 | 29.44° C | 50% | 1015.8 hPa | 0 mm | 0.45 m/s, 166° | 774 W/m² | - |
| 1778002787 | 29.44° C | 52% | 1015.8 hPa | 0 mm | 0.45 m/s, 76° | 773 W/m² | - |
| 1778002484 | 29.44° C | 52% | 1016 hPa | 0 mm | 0.89 m/s, 75° | 783 W/m² | - |
| 1778002181 | 29.44° C | 52% | 1015.9 hPa | 0 mm | 0 m/s | 769 W/m² | - |
| 1778001879 | 28.89° C | 53% | 1015.9 hPa | 0 mm | 3.13 m/s, 180° | 732 W/m² | - |
| 1778001578 | 28.89° C | 55% | 1015.9 hPa | 0 mm | 0.45 m/s, 125° | 516 W/m² | - |
| 1778001276 | 28.89° C | 55% | 1016 hPa | 0 mm | 0.45 m/s, 116° | 726 W/m² | - |
| 1778000972 | 30° C | 55% | 1016 hPa | 0 mm | 0.89 m/s, 219° | 718 W/m² | - |
| 1778000669 | 29.44° C | 53% | 1016.2 hPa | 0 mm | 3.13 m/s, 175° | 694 W/m² | - |
| 1778000364 | 28.89° C | 55% | 1016.2 hPa | 0 mm | 0 m/s | 736 W/m² | - |
| 1778000060 | 29.44° C | 54% | 1016.3 hPa | 0 mm | 0.89 m/s, 109° | 782 W/m² | - |
| 1777999756 | 29.44° C | 53% | 1016.1 hPa | 0 mm | 0 m/s | 769 W/m² | - |
| 1777999453 | 28.89° C | 56% | 1016.1 hPa | 0 mm | 1.79 m/s, 197° | 761 W/m² | - |
| 1777999151 | 28.89° C | 57% | 1016.6 hPa | 0 mm | 0 m/s | 803 W/m² | - |
| 1777998850 | 28.33° C | 55% | 1016.6 hPa | 0 mm | 0 m/s | 815 W/m² | - |
| 1777998548 | 27.78° C | 57% | 1016.5 hPa | 0 mm | 0.89 m/s, 113° | 769 W/m² | - |
* Rain latest hour (hover to see other rain measurements)
** Current wind speed in m/s (hover to see current wind gust speed)